Time;durP1;ratioP1;P1;durP2;ratioP2;P2;SDS_P1;SDS_P2;PMS_P1;PMS_P2;Temp;Humidity;BMP_temperature;BMP_pressure;BME280_temperature;BME280_humidity;BME280_pressure;Samples;Min_cycle;Max_cycle;Signal;HPM_P1;HPM_P2
2021/05/02 00:00:24;;;;;;;4.37;4.08;;;;;;;15.73;74.80;99110.72;1812424;78;21631;-53
2021/05/02 00:02:51;;;;;;;4.83;3.27;;;;;;;15.73;74.81;99108.02;1784934;78;21138;-53
2021/05/02 00:05:20;;;;;;;2.83;2.55;;;;;;;15.73;74.72;99108.02;1812259;77;21147;-53
2021/05/02 00:07:48;;;;;;;2.95;2.75;;;;;;;15.73;74.73;99101.72;1813660;77;21115;-53
2021/05/02 00:10:18;;;;;;;3.00;2.70;;;;;;;15.72;74.75;99099.50;1784241;78;21540;-53
2021/05/02 00:12:45;;;;;;;2.40;1.87;;;;;;;15.71;74.81;99095.05;1777352;79;21332;-53
2021/05/02 00:15:19;;;;;;;3.70;3.37;;;;;;;15.70;74.83;99091.96;1780918;79;21190;-52
2021/05/02 00:17:47;;;;;;;3.72;3.42;;;;;;;15.68;74.87;99086.28;1812439;77;21111;-53
2021/05/02 00:20:17;;;;;;;4.30;3.77;;;;;;;15.66;74.94;99075.54;1812283;77;21193;-53
2021/05/02 00:22:47;;;;;;;4.00;3.42;;;;;;;15.65;74.98;99079.23;1810423;77;21170;-53
2021/05/02 00:25:16;;;;;;;3.85;3.60;;;;;;;15.63;75.02;99066.80;1786098;78;21193;-53
2021/05/02 00:27:44;;;;;;;3.50;2.85;;;;;;;15.61;75.03;99068.77;1791410;78;21178;-53
2021/05/02 00:30:16;;;;;;;2.58;2.37;;;;;;;15.58;75.02;99065.80;1789127;78;21126;-53
2021/05/02 00:32:47;;;;;;;2.42;2.20;;;;;;;15.57;75.05;99067.30;1815722;77;20970;-53
2021/05/02 00:35:16;;;;;;;1.92;1.72;;;;;;;15.55;75.08;99063.34;1777640;79;21159;-52
2021/05/02 00:37:43;;;;;;;1.92;1.60;;;;;;;15.55;75.09;99065.20;1789490;78;22745;-52
2021/05/02 00:40:20;;;;;;;2.00;1.80;;;;;;;15.55;75.08;99061.13;1788093;78;21182;-53
2021/05/02 00:42:50;;;;;;;2.20;1.57;;;;;;;15.55;75.04;99055.70;1811289;78;21194;-53
2021/05/02 00:45:28;;;;;;;2.15;1.90;;;;;;;15.55;75.01;99050.27;1814465;77;21209;-53
2021/05/02 00:48:13;;;;;;;2.40;1.40;;;;;;;15.52;74.94;99050.84;1784757;78;21425;-52
2021/05/02 00:50:51;;;;;;;1.45;1.35;;;;;;;15.50;74.89;99043.32;1815473;77;21353;-52
2021/05/02 00:53:46;;;;;;;1.37;1.22;;;;;;;15.46;74.85;99049.13;1815130;78;21464;-53
2021/05/02 00:56:26;;;;;;;2.25;1.07;;;;;;;15.45;74.83;99044.68;1761579;78;21722;-52
2021/05/02 00:59:05;;;;;;;1.40;0.93;;;;;;;15.40;74.80;99044.16;1815904;77;21261;-53
2021/05/02 01:01:45;;;;;;;2.02;1.30;;;;;;;15.37;74.84;99045.78;1817700;77;21484;-53
2021/05/02 01:04:13;;;;;;;1.30;1.20;;;;;;;15.34;74.88;99041.45;1813934;77;21362;-53
2021/05/02 01:06:41;;;;;;;2.12;1.37;;;;;;;15.33;74.87;99043.79;1784524;78;21149;-53
2021/05/02 01:09:10;;;;;;;3.70;1.40;;;;;;;15.31;74.89;99042.20;1814544;77;21160;-53
2021/05/02 01:11:38;;;;;;;2.30;1.30;;;;;;;15.29;74.88;99046.88;1814562;77;21166;-53
2021/05/02 01:14:05;;;;;;;3.67;1.25;;;;;;;15.25;74.88;99042.66;1763235;78;21134;-49
2021/05/02 01:16:36;;;;;;;1.05;0.90;;;;;;;15.21;74.94;99039.34;1811862;77;21984;-51
2021/05/02 01:19:07;;;;;;;1.40;0.80;;;;;;;15.20;74.97;99034.05;1759849;78;21161;-50
2021/05/02 01:21:40;;;;;;;0.93;0.80;;;;;;;15.19;75.01;99032.31;1788103;78;21162;-50
2021/05/02 01:24:10;;;;;;;2.17;0.90;;;;;;;15.17;75.07;99032.91;1814326;78;21611;-49
2021/05/02 01:29:18;;;;;;;2.07;0.83;;;;;;;15.17;75.08;99034.27;1864457;74;21949;-47
2021/05/02 01:31:46;;;;;;;0.98;0.82;;;;;;;15.13;75.16;99033.17;1842083;75;21186;-53
2021/05/02 01:34:13;;;;;;;2.25;1.10;;;;;;;15.12;75.17;99026.52;1835515;75;21720;-53
2021/05/02 01:36:40;;;;;;;1.75;1.10;;;;;;;15.09;75.18;99024.89;1833415;75;21190;-53
2021/05/02 01:39:08;;;;;;;3.47;0.90;;;;;;;15.06;75.21;99023.77;1713916;78;21182;-53
2021/05/02 01:41:36;;;;;;;1.12;0.90;;;;;;;15.05;75.21;99020.72;1810115;76;22087;-53
2021/05/02 01:44:04;;;;;;;0.80;0.70;;;;;;;15.04;75.24;99021.70;1809130;78;21635;-53
2021/05/02 01:46:39;;;;;;;1.05;0.80;;;;;;;15.03;75.29;99018.61;1803744;78;21367;-53
2021/05/02 01:49:09;;;;;;;1.05;0.80;;;;;;;15.03;75.32;99018.61;1811890;77;21202;-53
2021/05/02 01:51:37;;;;;;;0.82;0.80;;;;;;;15.00;75.32;99021.55;1799116;78;21182;-53
2021/05/02 01:54:05;;;;;;;1.35;0.82;;;;;;;14.97;75.42;99013.64;1801040;78;21502;-53
2021/05/02 01:56:33;;;;;;;1.30;0.90;;;;;;;14.97;75.46;99008.22;1833824;76;20953;-52
2021/05/02 01:59:01;;;;;;;1.90;0.90;;;;;;;14.95;75.51;99003.92;1809113;78;21182;-53
2021/05/02 02:01:29;;;;;;;3.95;0.82;;;;;;;14.93;75.55;98994.56;1803799;77;21103;-53
2021/05/02 02:03:57;;;;;;;1.00;0.78;;;;;;;14.91;75.65;98992.45;1834421;76;21110;-53
2021/05/02 02:06:26;;;;;;;0.78;0.70;;;;;;;14.91;75.71;98987.52;1782661;78;21440;-53
2021/05/02 02:08:58;;;;;;;1.10;0.80;;;;;;;14.90;75.78;98992.56;1808530;78;21181;-53
2021/05/02 02:11:30;;;;;;;1.77;0.90;;;;;;;14.90;75.89;98990.72;1813106;77;21376;-53
2021/05/02 02:13:58;;;;;;;1.10;0.82;;;;;;;14.89;75.97;98998.47;1809478;78;22403;-53
2021/05/02 02:16:25;;;;;;;1.55;0.80;;;;;;;14.88;76.04;98999.48;1812046;77;21201;-53
2021/05/02 02:18:55;;;;;;;1.47;0.90;;;;;;;14.86;76.08;98993.31;1800237;78;21105;-53
2021/05/02 02:21:24;;;;;;;0.90;0.72;;;;;;;14.85;76.14;98985.30;1800685;78;21138;-53
2021/05/02 02:23:58;;;;;;;1.47;0.80;;;;;;;14.84;76.20;98986.28;1831653;76;21472;-53
2021/05/02 02:26:54;;;;;;;0.80;0.70;;;;;;;14.83;76.24;98990.83;1814541;78;21499;-53
2021/05/02 02:29:21;;;;;;;1.20;0.80;;;;;;;14.81;76.31;98991.44;1728397;81;21241;-52
2021/05/02 02:31:50;;;;;;;1.72;0.70;;;;;;;14.83;76.41;98989.97;1764579;79;21650;-51
2021/05/02 02:34:18;;;;;;;1.27;0.70;;;;;;;14.84;76.42;98983.08;1779977;78;21452;-54
2021/05/02 02:36:45;;;;;;;1.25;0.80;;;;;;;14.87;76.42;98982.85;1779409;78;21372;-52
2021/05/02 02:39:14;;;;;;;1.32;0.70;;;;;;;14.87;76.36;98980.14;1799186;78;21231;-52
2021/05/02 02:41:43;;;;;;;1.35;0.90;;;;;;;14.86;76.37;98972.13;1758497;78;21124;-52
2021/05/02 02:44:10;;;;;;;1.22;0.82;;;;;;;14.85;76.38;98979.87;1776055;79;21154;-52
2021/05/02 02:46:46;;;;;;;3.10;0.70;;;;;;;14.84;76.38;98971.37;1770169;78;21146;-52
2021/05/02 02:49:14;;;;;;;0.85;0.70;;;;;;;14.84;76.34;98978.15;1797696;77;21425;-52
2021/05/02 02:51:43;;;;;;;1.42;0.82;;;;;;;14.82;76.38;98970.13;1774007;79;21094;-52
2021/05/02 02:54:11;;;;;;;1.10;0.82;;;;;;;14.83;76.38;98975.06;1779907;78;21134;-52
2021/05/02 02:56:42;;;;;;;1.37;0.88;;;;;;;14.83;76.34;98982.70;1779889;78;20920;-51
2021/05/02 02:59:16;;;;;;;0.80;0.72;;;;;;;14.83;76.29;98983.19;1765548;79;21142;-52
2021/05/02 03:01:46;;;;;;;3.37;0.90;;;;;;;14.81;76.23;98984.66;1805572;77;21433;-51
2021/05/02 03:04:17;;;;;;;1.10;0.80;;;;;;;14.77;76.23;98984.55;1801147;77;21117;-52
2021/05/02 03:06:44;;;;;;;2.55;0.80;;;;;;;14.73;76.30;98987.97;1799093;77;21116;-52
2021/05/02 03:09:15;;;;;;;1.25;0.70;;;;;;;14.73;76.41;98985.75;1798512;77;21104;-52
2021/05/02 03:11:43;;;;;;;1.72;0.70;;;;;;;14.72;76.46;98978.11;1768355;79;21158;-51
2021/05/02 03:14:13;;;;;;;0.80;0.70;;;;;;;14.73;76.58;98985.26;1767000;79;22285;-52
2021/05/02 03:16:41;;;;;;;1.00;0.70;;;;;;;14.76;76.64;98982.81;1771983;79;21174;-53
2021/05/02 03:19:26;;;;;;;1.00;0.78;;;;;;;14.76;76.71;98980.97;1777570;78;21569;-52
2021/05/02 03:22:18;;;;;;;1.00;0.90;;;;;;;14.77;76.74;98984.55;1773617;78;21181;-53
2021/05/02 03:24:48;;;;;;;0.80;0.80;;;;;;;14.79;76.79;98977.66;1774602;78;21756;-52
2021/05/02 03:27:25;;;;;;;1.15;0.70;;;;;;;14.79;76.83;98985.30;1771275;79;21709;-53
2021/05/02 03:29:53;;;;;;;3.47;0.80;;;;;;;14.81;76.87;98977.89;1802792;77;21795;-52
2021/05/02 03:32:27;;;;;;;1.45;0.90;;;;;;;14.82;76.95;98974.20;1767348;78;21211;-52
2021/05/02 03:34:55;;;;;;;1.65;0.80;;;;;;;14.85;76.98;98976.69;1783922;78;21204;-53
2021/05/02 03:37:25;;;;;;;1.50;0.70;;;;;;;14.87;77.01;98984.20;1789743;78;21230;-53
2021/05/02 03:39:52;;;;;;;0.98;0.70;;;;;;;14.90;77.10;98979.88;1783992;78;21307;-53
2021/05/02 03:42:19;;;;;;;2.15;0.82;;;;;;;14.92;77.10;98977.92;1806359;77;21115;-53
2021/05/02 03:44:48;;;;;;;3.30;0.90;;;;;;;14.95;77.09;98979.05;1775197;79;21511;-52
2021/05/02 03:47:15;;;;;;;0.90;0.80;;;;;;;14.97;77.08;98985.71;1778547;78;21181;-52
2021/05/02 03:49:44;;;;;;;3.02;0.80;;;;;;;15.00;77.07;98989.03;1779802;79;21209;-53
2021/05/02 03:52:14;;;;;;;1.00;0.80;;;;;;;15.02;77.07;98987.06;1777009;79;21387;-52
2021/05/02 03:54:43;;;;;;;0.98;0.75;;;;;;;15.06;77.05;98983.61;1808157;77;21496;-53
2021/05/02 03:57:10;;;;;;;2.50;0.70;;;;;;;15.10;77.07;98987.81;1813120;77;21090;-52
2021/05/02 03:59:38;;;;;;;1.40;0.70;;;;;;;15.12;77.08;98982.66;1809776;77;21629;-53
2021/05/02 04:02:06;;;;;;;1.55;0.85;;;;;;;15.15;77.05;98978.33;1782376;78;21155;-53
2021/05/02 04:04:35;;;;;;;1.82;0.80;;;;;;;15.20;77.00;98979.83;1804504;78;21635;-53
2021/05/02 04:07:10;;;;;;;1.57;0.85;;;;;;;15.26;76.94;98969.84;1779300;79;21190;-52
2021/05/02 04:09:49;;;;;;;1.22;0.88;;;;;;;15.30;76.85;98961.84;1780965;79;21176;-52
2021/05/02 04:12:16;;;;;;;2.52;0.60;;;;;;;15.36;76.73;98962.21;1781061;79;21192;-52
2021/05/02 04:14:45;;;;;;;1.15;0.68;;;;;;;15.43;76.63;98966.64;1784940;78;21212;-52
2021/05/02 04:17:14;;;;;;;1.40;0.62;;;;;;;15.47;76.50;98955.44;1779992;78;21536;-52
2021/05/02 04:19:44;;;;;;;2.37;0.70;;;;;;;15.53;76.39;98959.50;1794087;78;21218;-52
2021/05/02 04:22:16;;;;;;;1.80;0.60;;;;;;;15.58;76.32;98965.43;1791988;78;21190;-51
2021/05/02 04:24:44;;;;;;;0.70;0.62;;;;;;;15.64;76.15;98962.24;1793689;78;21185;-53
2021/05/02 04:27:13;;;;;;;2.00;0.80;;;;;;;15.67;76.00;98961.11;1792849;78;21178;-52
2021/05/02 04:29:41;;;;;;;0.82;0.70;;;;;;;15.71;75.93;98961.24;1777009;78;21455;-52
2021/05/02 04:32:09;;;;;;;1.12;0.95;;;;;;;15.74;75.79;98952.83;1811906;78;21182;-51
2021/05/02 04:35:39;;;;;;;1.30;0.70;;;;;;;15.83;75.66;98943.94;1801718;78;22542;-52
2021/05/02 04:38:06;;;;;;;1.90;0.80;;;;;;;15.82;75.60;98954.45;1767727;79;21935;-54
2021/05/02 04:40:34;;;;;;;1.20;0.68;;;;;;;15.85;75.46;98948.75;1736893;81;21706;-52
2021/05/02 04:43:01;;;;;;;1.32;0.88;;;;;;;15.87;75.37;98953.08;1699774;81;21548;-53
2021/05/02 04:45:28;;;;;;;1.67;0.80;;;;;;;15.90;75.30;98946.54;1711278;81;21488;-53
2021/05/02 04:47:55;;;;;;;1.37;0.60;;;;;;;15.92;75.26;98951.32;1677624;83;21235;-52
2021/05/02 04:50:22;;;;;;;2.27;1.00;;;;;;;15.94;75.26;98956.63;1682803;83;21631;-49
2021/05/02 04:52:49;;;;;;;1.80;0.60;;;;;;;15.96;75.19;98964.16;1683989;83;21388;-49
2021/05/02 04:55:17;;;;;;;0.80;0.75;;;;;;;15.96;75.09;98962.30;1717175;81;21196;-52
2021/05/02 04:57:44;;;;;;;0.93;0.80;;;;;;;15.99;75.04;98951.70;1715553;81;21219;-50
2021/05/02 05:00:12;;;;;;;1.40;0.80;;;;;;;16.02;74.98;98953.64;1655376;84;21674;-50
2021/05/02 05:02:39;;;;;;;7.03;0.80;;;;;;;16.07;75.19;98950.56;1690165;82;21176;-49
2021/05/02 05:05:08;;;;;;;0.85;0.60;;;;;;;16.07;75.19;98950.56;1683574;82;22845;-51
2021/05/02 05:07:36;;;;;;;1.15;0.80;;;;;;;16.07;74.81;98950.08;1686895;82;21735;-52
2021/05/02 05:10:07;;;;;;;0.85;0.70;;;;;;;16.10;74.80;98950.29;1691039;82;21652;-49
2021/05/02 05:12:37;;;;;;;1.80;0.80;;;;;;;16.13;74.68;98958.19;1686121;82;21200;-50
2021/05/02 05:15:06;;;;;;;3.17;0.70;;;;;;;16.15;74.49;98952.14;1686702;82;21240;-51
2021/05/02 05:17:33;;;;;;;1.15;0.70;;;;;;;16.15;74.49;98952.14;1676657;83;21212;-49
2021/05/02 05:20:01;;;;;;;2.40;0.90;;;;;;;16.18;74.66;98957.30;1679236;83;21438;-52
2021/05/02 05:22:28;;;;;;;1.55;0.85;;;;;;;16.23;74.52;98952.36;1676842;83;21545;-51
2021/05/02 05:24:55;;;;;;;1.37;0.80;;;;;;;16.25;74.50;98945.79;1680166;83;21176;-51
2021/05/02 05:27:23;;;;;;;0.80;0.80;;;;;;;16.30;74.32;98938.63;1707909;81;21090;-52
2021/05/02 05:29:50;;;;;;;3.15;0.90;;;;;;;16.33;74.30;98946.53;1704216;81;21157;-51
2021/05/02 05:32:17;;;;;;;2.10;0.88;;;;;;;16.38;74.23;98950.20;1687928;83;21151;-50
2021/05/02 05:34:45;;;;;;;1.80;1.00;;;;;;;16.42;74.18;98953.00;1676035;83;21162;-52
2021/05/02 05:37:12;;;;;;;2.55;0.80;;;;;;;16.47;73.99;98950.29;1689885;83;21149;-51
2021/05/02 05:39:41;;;;;;;1.20;0.80;;;;;;;16.53;73.73;98945.68;1682086;83;21132;-51
2021/05/02 05:42:08;;;;;;;1.55;0.82;;;;;;;16.60;73.58;98937.37;1683242;82;21482;-52
2021/05/02 05:44:36;;;;;;;1.85;0.72;;;;;;;16.68;73.59;98944.02;1680699;83;21193;-50
2021/05/02 05:47:04;;;;;;;0.78;0.75;;;;;;;16.74;73.30;98936.73;1676723;83;21135;-50
2021/05/02 05:49:33;;;;;;;1.77;0.90;;;;;;;16.80;73.26;98939.77;1689060;82;21149;-51
2021/05/02 05:52:00;;;;;;;2.02;0.90;;;;;;;16.87;73.09;98939.59;1676431;83;21114;-52
2021/05/02 05:54:27;;;;;;;1.72;1.20;;;;;;;16.95;72.85;98929.41;1685902;82;21223;-50
2021/05/02 05:56:54;;;;;;;4.03;0.90;;;;;;;17.00;72.52;98932.61;1691963;82;21158;-50
2021/05/02 05:59:21;;;;;;;2.87;1.07;;;;;;;17.04;72.44;98929.97;1688395;82;21162;-52
2021/05/02 06:01:49;;;;;;;3.65;1.47;;;;;;;17.08;72.24;98932.80;1686901;82;21166;-51
2021/05/02 06:04:17;;;;;;;3.35;1.17;;;;;;;17.12;71.87;98931.52;1667321;83;21134;-52
2021/05/02 06:06:44;;;;;;;2.55;0.90;;;;;;;17.17;71.74;98924.33;1678459;83;21473;-52
2021/05/02 06:09:11;;;;;;;2.42;1.30;;;;;;;17.21;71.43;98924.41;1690084;82;21529;-50
2021/05/02 06:11:38;;;;;;;1.02;0.93;;;;;;;17.23;71.35;98917.84;1688194;82;21628;-50
2021/05/02 06:14:08;;;;;;;1.35;1.00;;;;;;;17.25;71.41;98921.30;1689157;82;21332;-51
2021/05/02 06:16:36;;;;;;;3.95;0.85;;;;;;;17.27;71.32;98916.55;1686925;82;21178;-51
2021/05/02 06:19:03;;;;;;;2.22;1.20;;;;;;;17.33;71.24;98907.01;1686305;82;21585;-49
2021/05/02 06:21:31;;;;;;;1.35;0.90;;;;;;;17.38;71.13;98914.25;1676468;83;21439;-51
2021/05/02 06:23:58;;;;;;;3.67;1.30;;;;;;;17.43;71.10;98914.72;1684143;82;21513;-51
2021/05/02 06:26:26;;;;;;;2.92;1.15;;;;;;;17.45;70.88;98911.83;1684788;82;21221;-50
2021/05/02 06:28:54;;;;;;;2.75;1.20;;;;;;;17.47;70.66;98917.51;1674561;83;21248;-52
2021/05/02 06:31:21;;;;;;;2.00;1.10;;;;;;;17.49;70.59;98907.86;1690225;82;21404;-53
2021/05/02 06:33:48;;;;;;;5.50;1.15;;;;;;;17.51;70.44;98908.59;1723723;81;21186;-51
2021/05/02 06:36:17;;;;;;;1.57;1.27;;;;;;;17.53;70.40;98918.31;1723181;80;21128;-53
2021/05/02 06:38:45;;;;;;;1.40;0.80;;;;;;;17.57;70.37;98911.61;1722268;80;21618;-51
2021/05/02 06:41:12;;;;;;;5.67;1.32;;;;;;;17.58;70.27;98918.77;1723682;80;21254;-52
2021/05/02 06:43:40;;;;;;;3.37;1.32;;;;;;;17.60;70.08;98919.51;1717405;80;21379;-52
2021/05/02 06:46:07;;;;;;;2.30;1.50;;;;;;;17.61;69.88;98926.64;1723215;80;21780;-52
2021/05/02 06:48:34;;;;;;;2.60;1.20;;;;;;;17.61;69.81;98955.71;1727862;80;21614;-51
2021/05/02 06:51:02;;;;;;;4.75;1.90;;;;;;;17.54;69.91;98974.95;1723427;81;21148;-53
2021/05/02 06:53:29;;;;;;;3.50;1.50;;;;;;;17.49;69.80;98976.73;1726681;80;21116;-51
2021/05/02 06:55:57;;;;;;;2.72;1.30;;;;;;;17.46;69.71;98969.33;1725397;81;21374;-52
2021/05/02 06:58:24;;;;;;;3.52;1.77;;;;;;;17.44;69.83;98961.30;1731234;80;21240;-51
2021/05/02 07:00:52;;;;;;;3.05;1.70;;;;;;;17.41;69.68;98957.52;1729702;80;21207;-53
2021/05/02 07:03:21;;;;;;;2.08;1.82;;;;;;;17.39;69.72;98950.84;1728590;80;21203;-52
2021/05/02 07:05:49;;;;;;;3.50;1.90;;;;;;;17.37;69.76;98947.39;1729685;80;21163;-51
2021/05/02 07:08:18;;;;;;;3.72;1.98;;;;;;;17.37;69.88;98951.97;1729074;80;21392;-52
2021/05/02 07:10:46;;;;;;;4.87;2.27;;;;;;;17.35;69.71;98956.17;1728247;80;21214;-52
2021/05/02 07:13:14;;;;;;;4.87;2.15;;;;;;;17.33;69.72;98959.55;1721384;80;21542;-51
2021/05/02 07:15:42;;;;;;;6.33;1.82;;;;;;;17.33;69.90;98953.25;1659940;83;21215;-52
2021/05/02 07:18:09;;;;;;;4.80;2.02;;;;;;;17.34;69.91;98950.89;1729104;80;21231;-53
2021/05/02 07:20:36;;;;;;;6.08;3.67;;;;;;;17.34;69.95;98949.54;1726144;80;21646;-53
2021/05/02 07:23:04;;;;;;;7.67;3.67;;;;;;;17.33;69.84;98940.52;1726721;80;21223;-53
2021/05/02 07:25:32;;;;;;;4.92;3.42;;;;;;;17.34;69.84;98945.45;1722638;80;21226;-52
2021/05/02 07:28:00;;;;;;;4.00;2.42;;;;;;;17.34;69.80;98942.73;1724922;80;21656;-53
2021/05/02 07:30:27;;;;;;;7.92;2.60;;;;;;;17.37;69.74;98944.67;1723781;80;21175;-52
2021/05/02 07:32:54;;;;;;;5.37;2.40;;;;;;;17.39;69.66;98937.73;1728795;80;21401;-51
2021/05/02 07:35:22;;;;;;;4.90;2.47;;;;;;;17.42;69.63;98943.41;1728890;80;22058;-52
2021/05/02 07:37:49;;;;;;;13.88;4.45;;;;;;;17.44;69.73;98946.86;1729518;80;21206;-51
2021/05/02 07:40:16;;;;;;;4.53;3.30;;;;;;;17.46;69.61;98948.92;1731985;80;21385;-49
2021/05/02 07:42:44;;;;;;;5.35;4.12;;;;;;;17.48;69.61;98944.22;1731778;80;21453;-52
2021/05/02 07:45:11;;;;;;;7.20;3.83;;;;;;;17.49;69.55;98946.81;1732232;80;21210;-52
2021/05/02 07:47:40;;;;;;;7.22;3.17;;;;;;;17.52;69.53;98948.41;1734011;80;21152;-52
2021/05/02 07:50:09;;;;;;;8.55;4.67;;;;;;;17.53;69.58;98947.38;1734694;80;21744;-54
2021/05/02 07:52:37;;;;;;;8.28;4.08;;;;;;;17.54;69.49;98942.30;1685651;82;21551;-50
2021/05/02 07:55:05;;;;;;;6.40;5.37;;;;;;;17.54;69.51;98939.58;1700695;82;21240;-51
2021/05/02 07:57:32;;;;;;;9.35;5.33;;;;;;;17.55;69.54;98931.78;1674189;83;21458;-50
2021/05/02 08:00:01;;;;;;;6.90;5.25;;;;;;;17.54;69.56;98937.72;1689733;82;21185;-51
2021/05/02 08:02:28;;;;;;;7.85;4.87;;;;;;;17.52;69.46;98932.94;1699121;82;21457;-49
2021/05/02 08:04:55;;;;;;;6.60;5.92;;;;;;;17.50;69.45;98937.65;1699607;82;21149;-50
2021/05/02 08:07:22;;;;;;;7.97;7.17;;;;;;;17.50;69.30;98934.93;1697898;82;21251;-51
2021/05/02 08:09:50;;;;;;;13.83;6.37;;;;;;;17.46;69.29;98927.16;1670725;83;22683;-52
2021/05/02 08:12:23;;;;;;;8.68;6.42;;;;;;;17.42;69.32;98917.07;1674801;83;21319;-50
2021/05/02 08:14:52;;;;;;;9.05;6.17;;;;;;;17.41;69.39;98897.66;1673199;83;21775;-52
2021/05/02 08:17:19;;;;;;;10.82;7.75;;;;;;;17.38;69.37;98901.51;1666820;83;21487;-52
2021/05/02 08:19:47;;;;;;;11.08;6.17;;;;;;;17.37;69.37;98905.72;1695917;82;21206;-51
2021/05/02 08:22:18;;;;;;;9.80;6.22;;;;;;;17.36;69.57;98906.22;1686429;82;22581;-52
2021/05/02 08:24:46;;;;;;;9.90;5.90;;;;;;;17.34;69.65;98909.60;1697652;82;21222;-52
2021/05/02 08:27:13;;;;;;;7.85;6.12;;;;;;;17.33;69.73;98905.16;1682020;82;21586;-51
2021/05/02 08:29:41;;;;;;;8.33;7.25;;;;;;;17.36;69.77;98903.99;1684290;82;21220;-49
2021/05/02 08:32:08;;;;;;;8.73;7.05;;;;;;;17.36;69.72;98893.98;1683739;82;21257;-49
2021/05/02 08:34:36;;;;;;;10.05;7.95;;;;;;;17.39;69.73;98891.49;1685842;82;21325;-52
2021/05/02 08:37:06;;;;;;;8.63;6.17;;;;;;;17.40;69.58;98894.08;1686042;82;21191;-52
2021/05/02 08:39:34;;;;;;;10.00;6.75;;;;;;;17.41;69.52;98896.30;1685208;82;21180;-52
2021/05/02 08:42:02;;;;;;;6.75;5.80;;;;;;;17.43;69.55;98892.09;1687529;82;21194;-52
2021/05/02 08:44:29;;;;;;;7.53;6.58;;;;;;;17.46;69.55;98876.83;1687105;82;21160;-51
2021/05/02 08:46:57;;;;;;;9.10;6.80;;;;;;;17.49;69.35;98869.77;1685932;82;21578;-51
2021/05/02 08:49:24;;;;;;;6.90;6.20;;;;;;;17.51;69.27;98871.85;1690771;82;21651;-50
2021/05/02 08:51:52;;;;;;;8.25;6.60;;;;;;;17.50;69.10;98868.27;1692704;82;21163;-52
2021/05/02 08:54:19;;;;;;;10.85;5.75;;;;;;;17.50;69.09;98863.33;1689680;82;21573;-52
2021/05/02 08:56:55;;;;;;;11.18;7.50;;;;;;;17.50;69.10;98851.08;1683315;83;21124;-51
2021/05/02 08:59:23;;;;;;;6.45;5.70;;;;;;;17.52;69.07;98847.23;1697560;82;21218;-51
2021/05/02 09:01:50;;;;;;;10.35;6.10;;;;;;;17.53;69.06;98848.92;1670492;83;21711;-51
2021/05/02 09:04:18;;;;;;;12.45;6.90;;;;;;;17.56;69.23;98851.88;1674974;83;21147;-51
2021/05/02 09:06:45;;;;;;;10.32;6.37;;;;;;;17.60;69.17;98853.34;1691605;83;21482;-49
2021/05/02 09:09:14;;;;;;;9.65;6.37;;;;;;;17.63;69.02;98841.69;1701014;82;21716;-52
2021/05/02 09:11:44;;;;;;;16.17;8.98;;;;;;;17.68;69.05;98842.14;1683928;83;21591;-52
2021/05/02 09:14:25;;;;;;;8.15;6.40;;;;;;;17.72;69.09;98847.65;1700090;82;21147;-53
2021/05/02 09:19:50;;;;;;;13.80;7.07;;;;;;;17.83;69.08;98845.30;1867970;75;26715;-51
2021/05/02 09:22:18;;;;;;;9.40;6.70;;;;;;;17.83;69.16;98844.44;1841239;76;21492;-54
2021/05/02 09:25:10;;;;;;;8.98;6.25;;;;;;;17.83;69.05;98838.50;1844468;76;21386;-53
2021/05/02 09:27:49;;;;;;;7.37;6.62;;;;;;;17.85;69.09;98843.31;1844296;76;22503;-53
2021/05/02 09:30:19;;;;;;;9.45;7.28;;;;;;;17.86;69.02;98838.73;1843968;76;21149;-53
2021/05/02 09:32:48;;;;;;;8.95;7.90;;;;;;;17.84;68.97;98838.00;1846106;77;21184;-54
2021/05/02 09:35:30;;;;;;;18.60;9.68;;;;;;;17.82;69.04;98834.55;1844242;76;21191;-51
2021/05/02 09:38:13;;;;;;;11.22;8.05;;;;;;;17.81;69.07;98838.27;1841602;76;21436;-53
2021/05/02 09:40:54;;;;;;;12.03;9.53;;;;;;;17.76;69.15;98832.77;1841334;76;21706;-52
2021/05/02 09:43:41;;;;;;;8.08;6.78;;;;;;;17.73;69.25;98826.23;1844242;75;21202;-53
2021/05/02 09:46:24;;;;;;;7.33;6.50;;;;;;;17.69;69.49;98817.98;1842552;76;21633;-52
2021/05/02 09:49:11;;;;;;;11.73;8.03;;;;;;;17.68;69.97;98821.73;1844716;76;21190;-53
2021/05/02 09:51:51;;;;;;;8.28;6.65;;;;;;;17.63;70.44;98805.45;1846372;76;21385;-51
2021/05/02 09:54:21;;;;;;;12.37;9.03;;;;;;;17.53;70.83;98797.73;1842222;76;21661;-51
2021/05/02 09:56:52;;;;;;;15.30;9.95;;;;;;;17.43;71.23;98817.28;1844318;76;21268;-53
2021/05/02 09:59:32;;;;;;;15.10;9.65;;;;;;;17.42;71.60;98823.72;1843837;76;21174;-51
2021/05/02 10:02:14;;;;;;;13.45;10.13;;;;;;;17.42;71.85;98828.66;1846878;76;21162;-52
2021/05/02 10:04:51;;;;;;;12.68;9.05;;;;;;;17.42;72.10;98828.66;1840271;76;22108;-52
2021/05/02 10:07:21;;;;;;;12.43;7.65;;;;;;;17.43;72.31;98839.05;1847074;76;21143;-51
2021/05/02 10:09:48;;;;;;;6.25;5.50;;;;;;;17.42;72.56;98844.13;1842826;75;21198;-51
2021/05/02 10:12:16;;;;;;;10.28;6.25;;;;;;;17.43;72.66;98845.84;1849032;76;21106;-50
2021/05/02 10:14:46;;;;;;;10.88;6.65;;;;;;;17.45;72.63;98851.48;1844205;76;21118;-53
2021/05/02 10:17:13;;;;;;;8.38;7.53;;;;;;;17.46;72.82;98861.87;1847088;76;22163;-52
2021/05/02 10:19:42;;;;;;;11.63;8.38;;;;;;;17.48;73.13;98863.95;1845059;76;21868;-51
2021/05/02 10:22:10;;;;;;;15.15;7.97;;;;;;;17.47;73.20;98867.67;1845025;76;21697;-50
2021/05/02 10:24:37;;;;;;;12.05;8.08;;;;;;;17.48;73.38;98870.77;1843709;76;21083;-51
2021/05/02 10:27:10;;;;;;;10.93;8.40;;;;;;;17.50;73.65;98862.83;1843300;76;21173;-52
2021/05/02 10:29:40;;;;;;;9.68;7.03;;;;;;;17.52;73.69;98865.42;1847409;76;22154;-51
2021/05/02 10:32:11;;;;;;;11.65;7.20;;;;;;;17.54;73.83;98870.20;1841474;76;21606;-53
2021/05/02 10:34:42;;;;;;;15.23;7.30;;;;;;;17.55;73.84;98861.03;1847558;76;21076;-54
2021/05/02 10:37:27;;;;;;;11.75;6.70;;;;;;;17.54;74.01;98859.31;1841625;76;21172;-55
2021/05/02 10:40:09;;;;;;;16.40;10.28;;;;;;;17.54;74.24;98864.25;1845867;76;21637;-54
2021/05/02 10:42:56;;;;;;;9.83;8.35;;;;;;;17.49;74.42;98856.16;1841885;76;21340;-52
2021/05/02 10:45:39;;;;;;;8.40;7.60;;;;;;;17.47;74.80;98854.07;1844086;76;21191;-52
2021/05/02 10:48:09;;;;;;;;;;;;;;;17.44;75.05;98847.04;1848274;76;21209;-55
2021/05/02 10:50:45;;;;;;;14.68;7.03;;;;;;;17.43;75.27;98837.19;1817939;77;20273;-52
2021/05/02 10:53:18;;;;;;;8.60;5.92;;;;;;;17.45;75.26;98828.86;1845183;76;21146;-55
2021/05/02 10:56:06;;;;;;;10.80;6.53;;;;;;;17.47;75.11;98843.19;1843136;76;21276;-53
2021/05/02 10:58:40;;;;;;;8.30;5.92;;;;;;;17.48;75.23;98832.67;1846180;76;21604;-52
2021/05/02 11:01:09;;;;;;;11.55;7.15;;;;;;;17.52;75.06;98831.41;1844307;76;21518;-53
2021/05/02 11:03:43;;;;;;;7.05;6.37;;;;;;;17.52;74.91;98838.21;1840202;77;21533;-53
2021/05/02 11:06:13;;;;;;;8.80;7.30;;;;;;;17.48;74.94;98834.03;1844781;77;21198;-54
2021/05/02 11:08:57;;;;;;;7.97;6.42;;;;;;;17.45;74.84;98835.66;1844843;77;22224;-53
2021/05/02 11:11:35;;;;;;;;;;;;;;;17.43;75.02;98833.11;1849982;77;21174;-54
2021/05/02 11:14:21;;;;;;;8.20;5.87;;;;;;;17.38;75.21;98823.98;1846421;77;20272;-53
2021/05/02 11:17:04;;;;;;;10.88;6.17;;;;;;;17.35;75.41;98814.73;1847695;77;21651;-53
2021/05/02 11:19:39;;;;;;;8.08;6.00;;;;;;;17.34;75.35;98811.67;1848544;76;21140;-53
2021/05/02 11:22:08;;;;;;;9.25;7.03;;;;;;;17.35;75.33;98807.09;1854016;76;26706;-53
2021/05/02 11:24:45;;;;;;;9.03;6.80;;;;;;;17.36;75.47;98805.58;1847840;76;21114;-53
2021/05/02 11:27:39;;;;;;;11.33;7.47;;;;;;;17.36;75.27;98805.58;1812601;77;20965;-53
2021/05/02 11:30:06;;;;;;;8.05;6.50;;;;;;;17.38;75.34;98794.56;1811933;77;21103;-53
2021/05/02 11:32:34;;;;;;;9.50;7.35;;;;;;;17.42;75.29;98783.77;1807410;77;21123;-53
2021/05/02 11:35:14;;;;;;;7.15;4.90;;;;;;;17.45;75.09;98786.19;1788377;79;22124;-53
2021/05/02 11:38:03;;;;;;;8.75;5.78;;;;;;;17.49;75.06;98788.14;1786638;78;21511;-52
2021/05/02 11:40:34;;;;;;;11.95;6.33;;;;;;;17.48;74.97;98786.42;1815961;77;21519;-53
2021/05/02 11:43:12;;;;;;;10.88;5.03;;;;;;;17.50;74.99;98783.92;1814450;78;21143;-53
2021/05/02 11:45:54;;;;;;;7.95;6.10;;;;;;;17.54;74.88;98779.91;1815425;77;21122;-54
2021/05/02 11:48:28;;;;;;;7.10;6.22;;;;;;;17.56;74.80;98783.36;1817991;77;23169;-53
2021/05/02 11:51:05;;;;;;;13.15;6.58;;;;;;;17.57;74.94;98782.86;1816506;77;21135;-53
2021/05/02 11:53:43;;;;;;;11.28;6.65;;;;;;;17.58;75.07;98778.64;1817977;77;20957;-54